Time;durP1;ratioP1;P1;durP2;ratioP2;P2;SDS_P1;SDS_P2;PMS_P1;PMS_P2;Temp;Humidity;BMP_temperature;BMP_pressure;BME280_temperature;BME280_humidity;BME280_pressure;Samples;Min_cycle;Max_cycle;Signal;HPM_P1;HPM_P2
2021/12/06 00:01:24;;;;;;;46.93;21.13;;;;;;;3.88;100.00;95685.63;5095997;28;20438;-38
2021/12/06 00:03:56;;;;;;;42.50;24.60;;;;;;;3.89;100.00;95682.78;5095945;28;20914;-38
2021/12/06 00:06:26;;;;;;;43.83;21.93;;;;;;;3.89;100.00;95677.53;5095851;28;20474;-38
2021/12/06 00:08:54;;;;;;;44.20;21.63;;;;;;;3.81;100.00;95653.41;5096193;28;20447;-38
2021/12/06 00:11:22;;;;;;;43.73;19.83;;;;;;;3.73;100.00;95651.06;5096672;28;20458;-38
2021/12/06 00:13:50;;;;;;;41.07;19.00;;;;;;;3.84;100.00;95668.69;5095756;28;20816;-38
2021/12/06 00:16:22;;;;;;;46.77;19.20;;;;;;;3.86;100.00;95648.25;5095803;28;20953;-38
2021/12/06 00:18:51;;;;;;;48.80;23.93;;;;;;;3.86;100.00;95629.88;5095728;28;20427;-38
2021/12/06 00:21:19;;;;;;;21.03;11.40;;;;;;;3.89;100.00;95619.75;5095578;28;20474;-38
2021/12/06 00:23:46;;;;;;;25.37;11.17;;;;;;;3.94;100.00;95620.91;5095521;28;20439;-38
2021/12/06 00:26:15;;;;;;;17.33;9.93;;;;;;;3.97;100.00;95616.00;5096621;28;20513;-38
2021/12/06 00:28:45;;;;;;;29.20;18.37;;;;;;;3.95;100.00;95649.56;5095796;28;20447;-38
2021/12/06 00:31:13;;;;;;;27.37;12.03;;;;;;;3.89;100.00;95655.69;5095437;28;20525;-38
2021/12/06 00:33:41;;;;;;;24.13;13.90;;;;;;;3.78;100.00;95669.56;5095414;28;20447;-38
2021/12/06 00:36:16;;;;;;;24.07;14.20;;;;;;;3.83;100.00;95682.81;5095303;28;20482;-38
2021/12/06 00:38:46;;;;;;;20.03;12.37;;;;;;;3.81;100.00;95687.53;5095587;28;20589;-38
2021/12/06 00:41:15;;;;;;;20.50;14.23;;;;;;;3.80;100.00;95694.56;5095196;28;20475;-38
2021/12/06 00:43:42;;;;;;;22.43;13.80;;;;;;;3.81;100.00;95687.53;5095173;28;20446;-38
2021/12/06 00:46:09;;;;;;;26.73;15.80;;;;;;;3.79;100.00;95697.44;5094962;28;20492;-38
2021/12/06 00:48:36;;;;;;;39.43;18.43;;;;;;;3.77;100.00;95696.88;5095026;28;20442;-38
2021/12/06 00:51:04;;;;;;;30.53;14.80;;;;;;;3.65;100.00;95681.81;5095336;28;20443;-38
2021/12/06 00:53:32;;;;;;;31.60;16.90;;;;;;;3.78;100.00;95694.00;5095205;28;20472;-38
2021/12/06 00:55:59;;;;;;;32.80;16.93;;;;;;;3.78;100.00;95693.19;5095205;28;20443;-38
2021/12/06 00:58:28;;;;;;;43.57;20.57;;;;;;;3.78;100.00;95701.06;5094845;28;20443;-38
2021/12/06 01:00:56;;;;;;;40.50;18.57;;;;;;;3.77;100.00;95695.03;5094826;28;20443;-38
2021/12/06 01:03:26;;;;;;;30.03;17.57;;;;;;;3.72;100.00;95694.06;5095946;28;20461;-38
2021/12/06 01:05:53;;;;;;;26.83;16.80;;;;;;;3.64;100.00;95697.81;5094703;28;21015;-38
2021/12/06 01:08:21;;;;;;;29.20;15.40;;;;;;;3.63;100.00;95694.38;5095031;28;20438;-38
2021/12/06 01:10:50;;;;;;;31.47;16.43;;;;;;;3.63;100.00;95701.44;5094626;28;20931;-38
2021/12/06 01:13:18;;;;;;;30.50;15.40;;;;;;;3.62;100.00;95697.22;5094886;28;20546;-38
2021/12/06 01:15:46;;;;;;;40.90;15.57;;;;;;;3.60;100.00;95689.56;5094734;28;20470;-38
2021/12/06 01:18:17;;;;;;;25.77;15.20;;;;;;;3.62;100.00;95694.59;5094829;28;20439;-38
2021/12/06 01:20:51;;;;;;;23.53;12.40;;;;;;;3.64;100.00;95674.97;5094483;28;20486;-38
2021/12/06 01:23:22;;;;;;;19.87;11.77;;;;;;;3.65;100.00;95684.44;5094426;28;20422;-38
2021/12/06 01:25:57;;;;;;;22.83;10.20;;;;;;;3.65;100.00;95692.31;5094295;28;21041;-38
2021/12/06 01:29:00;;;;;;;32.97;12.37;;;;;;;3.66;100.00;95695.78;5094631;28;20423;-38
2021/12/06 01:31:39;;;;;;;25.07;11.07;;;;;;;3.67;100.00;95710.50;5094150;28;21002;-38
2021/12/06 01:39:08;;;;;;;30.23;13.73;;;;;;;3.68;100.00;95702.41;5094273;28;20537;-38
2021/12/06 01:39:42;;;;;;;18.20;10.60;;;;;;;3.47;100.00;95663.47;5094612;28;20559;-38
2021/12/06 01:42:11;;;;;;;15.33;9.70;;;;;;;3.54;100.00;95664.19;5094410;28;20453;-38
2021/12/06 01:44:40;;;;;;;22.90;9.80;;;;;;;3.48;100.00;95641.44;5094235;28;20451;-38
2021/12/06 01:47:14;;;;;;;28.23;11.40;;;;;;;3.56;100.00;95640.34;5093942;28;20796;-38
2021/12/06 01:49:44;;;;;;;22.43;10.70;;;;;;;3.50;100.00;95657.78;5094001;28;20903;-38
2021/12/06 01:52:15;;;;;;;28.37;13.90;;;;;;;3.48;100.00;95659.81;5093832;28;20435;-38
2021/12/06 01:54:43;;;;;;;27.67;16.17;;;;;;;3.41;100.00;95670.38;5093882;28;20449;-38
2021/12/06 01:57:11;;;;;;;23.77;12.53;;;;;;;3.38;100.00;95662.16;5094183;28;20450;-38
2021/12/06 01:59:39;;;;;;;22.80;13.13;;;;;;;3.35;100.00;95673.06;5093796;28;20446;-38
2021/12/06 02:02:10;;;;;;;24.63;11.70;;;;;;;3.35;100.00;95660.75;5094032;28;20793;-38
2021/12/06 02:04:39;;;;;;;22.20;12.07;;;;;;;3.36;100.00;95651.09;5093768;28;20431;-38
2021/12/06 02:07:08;;;;;;;21.30;11.23;;;;;;;3.39;100.00;95645.38;5093616;28;20849;-38
2021/12/06 02:09:36;;;;;;;39.83;17.50;;;;;;;3.40;100.00;95646.97;5093964;28;20446;-38
2021/12/06 02:12:04;;;;;;;38.07;18.97;;;;;;;3.32;100.00;95653.34;5093973;28;20798;-38
2021/12/06 02:14:40;;;;;;;33.20;16.20;;;;;;;3.34;100.00;95659.16;5093887;28;20443;-38
2021/12/06 02:17:15;;;;;;;28.50;16.23;;;;;;;3.34;100.00;95666.25;5093580;28;20518;-40
2021/12/06 02:19:48;;;;;;;23.20;12.23;;;;;;;3.35;100.00;95659.97;5093581;28;20929;-38
2021/12/06 02:22:21;;;;;;;15.20;9.93;;;;;;;3.42;100.00;95671.19;5093475;28;20543;-38
2021/12/06 02:24:49;;;;;;;8.00;6.93;;;;;;;3.30;100.00;95625.72;5093772;28;20481;-38
2021/12/06 02:27:17;;;;;;;13.40;6.27;;;;;;;3.58;100.00;95644.34;5093791;28;20469;-38
2021/12/06 02:29:47;;;;;;;14.03;7.50;;;;;;;3.66;100.00;95638.81;5093806;28;20447;-38
2021/12/06 02:32:15;;;;;;;15.47;7.90;;;;;;;3.81;100.00;95648.13;5093464;28;20449;-39
2021/12/06 02:34:45;;;;;;;13.50;6.70;;;;;;;3.87;100.00;95658.56;5093373;28;20542;-38
2021/12/06 02:37:13;;;;;;;12.93;6.63;;;;;;;3.92;100.00;95644.75;5093349;28;20438;-38
2021/12/06 02:39:41;;;;;;;11.77;5.63;;;;;;;3.88;100.00;95606.84;5093700;28;20806;-38
2021/12/06 02:42:11;;;;;;;17.43;6.03;;;;;;;4.12;100.00;95617.41;5093356;28;20442;-38
2021/12/06 02:44:39;;;;;;;44.83;25.37;;;;;;;4.12;100.00;95628.72;5093669;28;20854;-38
2021/12/06 02:47:07;;;;;;;24.23;16.23;;;;;;;4.06;100.00;95630.41;5093492;28;20494;-38
2021/12/06 02:49:34;;;;;;;29.83;14.63;;;;;;;4.03;100.00;95630.06;5093683;28;20439;-38
2021/12/06 02:52:02;;;;;;;35.20;14.73;;;;;;;4.01;100.00;95619.78;5093662;28;20442;-38
2021/12/06 02:54:29;;;;;;;24.30;10.93;;;;;;;4.02;100.00;95616.16;5093469;28;20447;-38
2021/12/06 02:57:19;;;;;;;24.80;11.27;;;;;;;4.17;100.00;95599.94;5093231;28;20470;-38
2021/12/06 02:59:49;;;;;;;21.23;10.97;;;;;;;4.26;100.00;95613.59;5093244;28;20497;-38
2021/12/06 03:02:19;;;;;;;18.63;8.40;;;;;;;4.25;100.00;95619.84;5093540;28;20834;-38
2021/12/06 03:04:46;;;;;;;21.23;9.87;;;;;;;4.03;100.00;95625.63;5096586;28;20456;-38
2021/12/06 03:07:17;;;;;;;17.33;9.47;;;;;;;3.79;100.00;95623.94;5097248;28;20490;-38
2021/12/06 03:09:45;;;;;;;13.17;9.50;;;;;;;3.65;100.00;95634.56;5097304;28;20492;-38
2021/12/06 03:12:18;;;;;;;11.93;7.67;;;;;;;3.60;100.00;95625.78;5097007;28;20602;-38
2021/12/06 03:14:47;;;;;;;15.33;8.40;;;;;;;3.61;100.00;95630.00;5096999;28;20424;-37
2021/12/06 03:17:17;;;;;;;13.70;8.80;;;;;;;3.59;100.00;95614.47;5096878;28;20943;-38
2021/12/06 03:19:45;;;;;;;25.57;11.37;;;;;;;3.66;100.00;95625.69;5097098;28;20442;-38
2021/12/06 03:22:14;;;;;;;47.10;22.50;;;;;;;3.59;100.00;95619.72;5097254;28;20481;-38
2021/12/06 03:24:42;;;;;;;51.80;21.53;;;;;;;3.73;100.00;95632.69;5096979;28;20446;-37
2021/12/06 03:27:10;;;;;;;44.40;18.53;;;;;;;3.75;100.00;95641.94;5096927;28;20490;-37
2021/12/06 03:29:39;;;;;;;37.53;18.47;;;;;;;3.72;100.00;95644.19;5096630;28;20454;-37
2021/12/06 03:32:07;;;;;;;27.30;15.37;;;;;;;3.50;100.00;95626.28;5096610;28;20931;-38
2021/12/06 03:34:35;;;;;;;29.23;15.73;;;;;;;3.59;100.00;95635.47;5096549;28;20466;-37
2021/12/06 03:37:05;;;;;;;26.37;13.40;;;;;;;3.60;100.00;95658.06;5096777;28;20450;-37
2021/12/06 03:39:36;;;;;;;27.07;13.00;;;;;;;3.62;100.00;95645.53;5096504;28;20933;-38
2021/12/06 03:42:07;;;;;;;38.00;18.90;;;;;;;3.64;100.00;95632.97;5096716;28;20804;-37
2021/12/06 03:44:36;;;;;;;35.33;15.27;;;;;;;3.63;100.00;95641.06;5096384;28;20975;-38
2021/12/06 03:47:08;;;;;;;24.63;14.40;;;;;;;3.66;100.00;95625.69;5096541;28;20490;-38
2021/12/06 03:49:36;;;;;;;23.00;11.10;;;;;;;3.68;100.00;95630.72;5096305;28;20431;-38
2021/12/06 03:52:05;;;;;;;17.63;10.63;;;;;;;3.68;100.00;95630.72;5096191;28;20775;-37
2021/12/06 03:54:33;;;;;;;43.40;20.17;;;;;;;3.65;100.00;95642.44;5096479;28;20466;-37
2021/12/06 03:57:01;;;;;;;25.00;15.87;;;;;;;3.53;100.00;95630.28;5096229;28;20443;-37
2021/12/06 03:59:29;;;;;;;10.27;8.63;;;;;;;3.20;100.00;95616.50;5096041;28;20439;-37
2021/12/06 04:01:57;;;;;;;17.37;9.80;;;;;;;3.00;100.00;95632.47;5096063;28;20835;-37
2021/12/06 04:04:26;;;;;;;17.87;9.10;;;;;;;2.69;100.00;95628.13;5096322;28;20442;-37
2021/12/06 04:06:53;;;;;;;18.80;8.77;;;;;;;2.52;100.00;95619.16;5096228;28;20494;-37
2021/12/06 04:09:21;;;;;;;18.60;10.13;;;;;;;2.48;100.00;95623.25;5095916;28;20450;-37
2021/12/06 04:11:51;;;;;;;24.37;11.87;;;;;;;2.53;100.00;95641.75;5096194;28;20798;-37
2021/12/06 04:14:19;;;;;;;16.30;9.10;;;;;;;2.37;100.00;95633.41;5095759;28;20446;-37
2021/12/06 04:16:46;;;;;;;16.80;10.50;;;;;;;2.55;100.00;95650.19;5096547;28;20447;-38
2021/12/06 04:19:14;;;;;;;12.90;8.07;;;;;;;2.59;100.00;95631.22;5095734;28;20453;-37
2021/12/06 04:21:45;;;;;;;20.90;11.80;;;;;;;2.61;100.00;95641.50;5095534;28;20470;-37
2021/12/06 04:24:13;;;;;;;23.07;12.63;;;;;;;2.46;100.00;95647.84;5095609;28;20903;-38
2021/12/06 04:26:41;;;;;;;36.00;18.63;;;;;;;2.31;100.00;95659.66;5095756;28;20493;-37
2021/12/06 04:29:10;;;;;;;18.07;8.83;;;;;;;2.19;100.00;95668.16;5095481;28;20497;-37
2021/12/06 04:31:40;;;;;;;22.07;10.07;;;;;;;2.11;100.00;95664.97;5095423;28;20447;-38
2021/12/06 04:34:08;;;;;;;13.20;8.20;;;;;;;2.14;100.00;95654.09;5095652;28;20450;-38
2021/12/06 04:36:35;;;;;;;20.90;12.93;;;;;;;2.07;100.00;95643.69;5095683;28;20445;-37
2021/12/06 04:39:06;;;;;;;12.83;8.03;;;;;;;1.97;100.00;95623.16;5095595;28;20439;-37
2021/12/06 04:41:34;;;;;;;16.10;10.47;;;;;;;2.02;100.00;95625.97;5095248;28;20441;-37
2021/12/06 04:44:01;;;;;;;10.83;8.60;;;;;;;2.02;100.00;95641.69;5095141;28;20873;-38
2021/12/06 04:46:28;;;;;;;23.30;14.10;;;;;;;2.05;100.00;95664.81;5095381;28;20482;-37
2021/12/06 04:48:56;;;;;;;18.47;13.00;;;;;;;2.13;100.00;95674.25;5095387;28;20517;-37
2021/12/06 04:51:23;;;;;;;52.60;24.40;;;;;;;2.12;100.00;95666.59;5095034;28;20496;-37
2021/12/06 04:53:53;;;;;;;65.00;29.47;;;;;;;2.25;100.00;95692.72;5095372;28;20481;-37
2021/12/06 04:56:24;;;;;;;16.90;11.10;;;;;;;2.14;100.00;95670.63;5094958;28;20470;-37
2021/12/06 04:58:57;;;;;;;18.07;10.50;;;;;;;2.09;100.00;95667.00;5094952;28;20435;-38
2021/12/06 05:01:28;;;;;;;28.73;13.70;;;;;;;1.98;100.00;95671.91;5092018;28;21061;-39
2021/12/06 05:03:57;;;;;;;22.70;10.13;;;;;;;1.93;100.00;95669.09;5092816;28;20424;-38
2021/12/06 05:06:28;;;;;;;13.70;8.57;;;;;;;1.91;100.00;95671.13;5092921;28;20506;-38
2021/12/06 05:08:59;;;;;;;18.37;11.80;;;;;;;2.01;100.00;95634.84;5092706;28;20423;-38
2021/12/06 05:11:31;;;;;;;44.23;21.60;;;;;;;2.08;100.00;95649.72;5092984;28;20446;-38
2021/12/06 05:14:01;;;;;;;39.33;21.00;;;;;;;2.20;100.00;95648.03;5092143;28;20432;-38
2021/12/06 05:16:28;;;;;;;58.27;31.10;;;;;;;2.26;100.00;95649.81;5092512;28;20814;-38
2021/12/06 05:18:56;;;;;;;48.87;24.77;;;;;;;2.26;100.00;95639.34;5092482;28;20442;-38
2021/12/06 05:21:23;;;;;;;51.20;26.30;;;;;;;2.30;100.00;95623.97;5092285;28;20474;-38
2021/12/06 05:23:51;;;;;;;62.53;28.23;;;;;;;2.31;100.00;95615.91;5092633;28;20439;-38
2021/12/06 05:26:18;;;;;;;40.37;22.07;;;;;;;2.40;100.00;95621.69;5091432;28;20482;-38
2021/12/06 05:28:48;;;;;;;61.97;34.67;;;;;;;2.50;100.00;95629.09;5092331;28;20976;-38
2021/12/06 05:31:19;;;;;;;59.90;32.33;;;;;;;2.45;100.00;95635.75;5092580;28;20443;-38
2021/12/06 05:33:51;;;;;;;58.23;26.93;;;;;;;2.47;100.00;95632.91;5092506;28;20990;-38
2021/12/06 05:36:18;;;;;;;36.73;21.30;;;;;;;2.46;100.00;95642.59;5094248;28;20428;-38
2021/12/06 05:38:46;;;;;;;57.00;28.03;;;;;;;2.42;100.00;95630.94;5094184;28;20451;-37
2021/12/06 05:41:13;;;;;;;61.03;29.07;;;;;;;2.49;100.00;95658.91;5094145;28;20950;-38
2021/12/06 05:43:40;;;;;;;46.53;27.23;;;;;;;2.53;100.00;95650.41;5094374;28;20443;-38
2021/12/06 05:46:09;;;;;;;80.73;36.50;;;;;;;2.46;100.00;95649.66;5091713;28;20509;-38
2021/12/06 05:48:37;;;;;;;52.23;31.80;;;;;;;2.53;100.00;95628.66;5091930;28;20443;-38
2021/12/06 05:51:04;;;;;;;52.93;31.03;;;;;;;2.63;100.00;95623.72;5091934;28;20439;-38
2021/12/06 05:53:32;;;;;;;83.73;46.60;;;;;;;2.73;100.00;95652.06;5091857;28;20451;-38
2021/12/06 05:55:59;;;;;;;54.37;27.13;;;;;;;2.66;100.00;95645.06;5091861;28;20447;-38
2021/12/06 05:58:28;;;;;;;75.33;40.23;;;;;;;2.68;100.00;95634.38;5091229;28;20457;-38
2021/12/06 06:00:57;;;;;;;72.63;41.40;;;;;;;2.76;100.00;95639.34;5091784;28;20562;-38
2021/12/06 06:03:26;;;;;;;74.37;41.93;;;;;;;2.60;100.00;95622.34;5091705;28;20439;-38
2021/12/06 06:05:54;;;;;;;57.93;34.97;;;;;;;2.79;100.00;95667.72;5091660;28;20461;-38
2021/12/06 06:08:21;;;;;;;71.63;35.57;;;;;;;2.83;100.00;95668.91;5091528;28;20573;-38
2021/12/06 06:10:51;;;;;;;46.90;29.37;;;;;;;2.71;100.00;95647.06;5091844;28;20443;-38
2021/12/06 06:13:19;;;;;;;64.50;34.63;;;;;;;2.89;100.00;95669.09;5091641;28;20774;-38
2021/12/06 06:15:49;;;;;;;68.73;34.83;;;;;;;2.94;100.00;95667.41;5091601;28;20485;-38
2021/12/06 06:18:16;;;;;;;62.47;36.77;;;;;;;3.04;100.00;95677.41;5091590;28;20447;-38
2021/12/06 06:20:48;;;;;;;64.03;37.60;;;;;;;3.12;100.00;95687.63;5091233;28;20470;-38
2021/12/06 06:23:16;;;;;;;81.60;45.37;;;;;;;3.16;100.00;95707.19;5090776;28;20825;-38
2021/12/06 06:25:44;;;;;;;71.27;40.80;;;;;;;3.16;100.00;95688.81;5090958;28;20446;-38
2021/12/06 06:28:12;;;;;;;67.00;35.80;;;;;;;3.15;100.00;95702.94;5091363;28;20575;-38
2021/12/06 06:30:40;;;;;;;74.23;36.07;;;;;;;3.20;100.00;95695.22;5091670;28;20521;-38
2021/12/06 06:33:07;;;;;;;62.40;34.00;;;;;;;3.19;100.00;95725.09;5091363;28;20439;-38
2021/12/06 06:35:34;;;;;;;95.70;47.00;;;;;;;3.24;100.00;95691.13;5091358;28;20447;-38
2021/12/06 06:38:03;;;;;;;86.83;45.90;;;;;;;3.21;100.00;95693.41;5092972;28;20454;-38
2021/12/06 06:40:31;;;;;;;76.07;39.30;;;;;;;3.37;100.00;95694.66;5095516;28;20451;-37
2021/12/06 06:42:58;;;;;;;74.60;41.97;;;;;;;3.37;100.00;95694.66;5095501;28;20434;-38
2021/12/06 06:45:25;;;;;;;74.67;44.77;;;;;;;3.41;100.00;95677.47;5095848;28;20454;-38
2021/12/06 06:47:53;;;;;;;60.87;33.20;;;;;;;3.56;100.00;95688.41;5095357;28;20510;-38
2021/12/06 06:50:21;;;;;;;103.40;41.40;;;;;;;3.74;100.00;95673.66;5095100;28;20550;-38
2021/12/06 06:52:50;;;;;;;66.63;35.30;;;;;;;3.76;100.00;95671.63;5095317;28;20447;-38
2021/12/06 06:55:21;;;;;;;87.87;48.30;;;;;;;3.93;100.00;95669.19;5095500;28;20439;-39
2021/12/06 06:57:50;;;;;;;72.37;39.07;;;;;;;4.03;100.00;95672.88;5095237;28;20534;-38
2021/12/06 07:00:20;;;;;;;60.80;34.70;;;;;;;4.24;100.00;95661.09;5095125;28;20978;-39
2021/12/06 07:02:48;;;;;;;116.17;46.70;;;;;;;4.48;100.00;95664.59;5095456;28;20427;-38
2021/12/06 07:05:17;;;;;;;45.10;21.83;;;;;;;4.59;100.00;95633.28;5094641;28;20442;-39
2021/12/06 07:07:44;;;;;;;112.63;59.23;;;;;;;4.87;100.00;95635.25;5095315;28;20490;-38
2021/12/06 07:10:12;;;;;;;68.20;35.53;;;;;;;5.13;100.00;95652.41;5095892;28;20451;-38
2021/12/06 07:12:45;;;;;;;86.97;42.50;;;;;;;5.06;100.00;95617.53;5097259;28;20445;-38
2021/12/06 07:15:15;;;;;;;73.33;40.17;;;;;;;5.23;100.00;95659.75;5097130;28;20514;-39
2021/12/06 07:17:44;;;;;;;71.77;35.30;;;;;;;5.28;100.00;95647.47;5093888;28;20454;-38
2021/12/06 07:20:13;;;;;;;34.83;18.47;;;;;;;5.29;100.00;95654.38;5094802;28;20439;-39
2021/12/06 07:22:41;;;;;;;68.27;34.67;;;;;;;5.33;100.00;95638.88;5095019;28;20454;-39
2021/12/06 07:25:10;;;;;;;49.73;25.00;;;;;;;5.36;100.00;95659.50;5094750;28;20453;-38
2021/12/06 07:27:38;;;;;;;107.20;39.97;;;;;;;5.41;100.00;95654.34;5094588;28;21000;-38
2021/12/06 07:30:09;;;;;;;54.67;29.40;;;;;;;5.45;100.00;95657.31;5094144;28;20948;-39
2021/12/06 07:32:36;;;;;;;54.50;28.73;;;;;;;5.50;100.00;95654.78;5096618;28;20446;-38
2021/12/06 07:35:04;;;;;;;52.43;29.93;;;;;;;5.55;100.00;95636.47;5096483;28;20480;-38
2021/12/06 07:37:32;;;;;;;47.57;25.13;;;;;;;5.64;100.00;95650.88;5096509;28;20537;-38
2021/12/06 07:39:59;;;;;;;30.20;17.73;;;;;;;5.81;100.00;95645.69;5096756;28;20466;-38
2021/12/06 07:42:26;;;;;;;27.00;15.67;;;;;;;6.02;100.00;95652.16;5096853;28;20449;-37
2021/12/06 07:44:53;;;;;;;37.80;20.00;;;;;;;6.20;100.00;95653.03;5096513;28;20563;-38
2021/12/06 07:47:22;;;;;;;82.80;40.00;;;;;;;6.42;100.00;95651.28;5096227;28;21025;-38
2021/12/06 07:49:50;;;;;;;51.23;24.67;;;;;;;6.64;99.08;95650.59;5093845;28;20534;-39
2021/12/06 07:52:17;;;;;;;40.07;22.27;;;;;;;6.76;98.88;95643.41;5094272;28;20435;-38
2021/12/06 07:54:45;;;;;;;44.17;25.10;;;;;;;7.00;99.70;95651.16;5094130;28;20450;-38
2021/12/06 07:57:13;;;;;;;26.40;15.27;;;;;;;7.16;99.40;95639.78;5094018;28;20443;-39
2021/12/06 07:59:46;;;;;;;32.57;18.37;;;;;;;7.35;96.97;95643.72;5094023;28;21179;-39
2021/12/06 08:02:14;;;;;;;37.70;21.67;;;;;;;7.51;98.25;95636.03;5093663;28;20504;-40
2021/12/06 08:04:42;;;;;;;35.23;18.87;;;;;;;7.63;98.59;95644.63;5096001;28;20443;-39
2021/12/06 08:07:10;;;;;;;49.97;20.83;;;;;;;7.68;97.55;95663.19;5096216;28;20482;-39
2021/12/06 08:09:37;;;;;;;71.53;37.63;;;;;;;7.76;96.84;95654.81;5095956;28;20796;-40
2021/12/06 08:12:05;;;;;;;37.20;19.70;;;;;;;7.77;97.05;95653.78;5096794;28;20748;-39
2021/12/06 08:14:34;;;;;;;12.73;8.63;;;;;;;7.88;93.49;95667.94;5095798;28;20450;-40
2021/12/06 08:17:01;;;;;;;33.30;13.23;;;;;;;7.95;93.94;95663.25;5095720;28;20443;-39
2021/12/06 08:19:28;;;;;;;18.43;10.00;;;;;;;8.02;93.18;95673.63;5096063;28;20449;-39
2021/12/06 08:21:57;;;;;;;14.13;8.17;;;;;;;8.09;91.79;95671.59;5095296;28;20542;-39
2021/12/06 08:24:25;;;;;;;15.73;9.70;;;;;;;8.12;91.65;95660.53;5095583;28;20447;-40
2021/12/06 08:26:52;;;;;;;8.80;5.63;;;;;;;8.14;91.34;95658.44;5095422;28;20957;-39
2021/12/06 08:29:19;;;;;;;53.13;26.80;;;;;;;8.12;89.25;95657.09;5095530;28;20445;-39
2021/12/06 08:31:47;;;;;;;193.20;67.77;;;;;;;8.31;89.03;95666.28;5095407;28;20963;-40
2021/12/06 08:34:15;;;;;;;65.97;31.53;;;;;;;8.38;90.30;95674.81;5095424;28;20453;-39
2021/12/06 08:36:42;;;;;;;28.03;15.80;;;;;;;8.46;90.21;95668.31;5095656;28;20512;-39
2021/12/06 08:39:11;;;;;;;26.87;14.43;;;;;;;8.54;90.14;95675.81;5095320;28;20945;-39
2021/12/06 08:41:38;;;;;;;80.33;44.40;;;;;;;8.65;90.27;95673.22;5095246;28;20538;-39
2021/12/06 08:44:06;;;;;;;29.93;14.97;;;;;;;8.70;88.54;95663.50;5095177;28;20445;-39
2021/12/06 08:46:43;;;;;;;14.50;8.63;;;;;;;8.77;88.26;95674.66;5095133;28;20443;-39
2021/12/06 08:49:12;;;;;;;112.07;38.23;;;;;;;8.88;89.23;95664.97;5094013;28;20489;-41
2021/12/06 08:51:44;;;;;;;36.50;19.30;;;;;;;8.98;89.59;95665.06;5092714;28;20516;-40
2021/12/06 08:54:17;;;;;;;121.50;46.37;;;;;;;9.06;88.94;95676.25;5093304;28;20432;-40
2021/12/06 08:56:46;;;;;;;42.80;21.10;;;;;;;9.15;89.31;95658.81;5092968;28;20431;-40
2021/12/06 08:59:14;;;;;;;48.50;22.57;;;;;;;9.30;89.57;95656.28;5092813;28;20453;-40
2021/12/06 09:01:42;;;;;;;34.80;18.77;;;;;;;9.39;89.03;95665.31;5092102;28;20628;-39
2021/12/06 09:04:12;;;;;;;52.40;24.13;;;;;;;9.48;90.09;95656.91;5092337;28;20447;-40
2021/12/06 09:06:42;;;;;;;35.23;18.70;;;;;;;9.59;89.84;95646.13;5092764;28;20522;-39
2021/12/06 09:09:12;;;;;;;22.00;11.07;;;;;;;9.71;89.33;95645.88;5092620;28;20491;-39
2021/12/06 09:11:44;;;;;;;22.37;14.20;;;;;;;9.80;89.59;95639.03;5092643;28;21026;-39
2021/12/06 09:14:12;;;;;;;15.57;9.70;;;;;;;9.90;89.11;95646.25;5093727;28;20438;-39
2021/12/06 09:16:41;;;;;;;24.77;10.67;;;;;;;9.98;88.16;95650.22;5094562;28;20443;-40
2021/12/06 09:19:10;;;;;;;10.40;7.20;;;;;;;10.05;86.70;95640.19;5094582;28;20967;-40
2021/12/06 09:21:38;;;;;;;10.90;6.60;;;;;;;10.11;87.22;95652.41;5094809;28;20554;-40
2021/12/06 09:24:08;;;;;;;16.70;10.57;;;;;;;10.18;86.47;95631.75;5094405;28;20439;-40
2021/12/06 09:26:36;;;;;;;33.67;15.63;;;;;;;10.28;85.77;95622.19;5094424;28;20450;-37
2021/12/06 09:29:06;;;;;;;29.80;15.27;;;;;;;10.32;82.95;95624.09;5094569;28;20521;-38
2021/12/06 09:31:34;;;;;;;34.00;19.87;;;;;;;10.40;84.15;95612.19;5095140;28;20457;-38
2021/12/06 09:34:02;;;;;;;29.63;13.17;;;;;;;10.48;83.21;95616.19;5093943;28;20443;-38
2021/12/06 09:36:29;;;;;;;15.97;11.20;;;;;;;10.52;83.06;95599.47;5091863;28;20455;-38
2021/12/06 09:38:57;;;;;;;32.60;18.57;;;;;;;10.45;83.52;95580.34;5092118;28;20457;-39
2021/12/06 09:41:27;;;;;;;36.80;22.87;;;;;;;10.56;84.09;95627.06;5092389;28;20446;-37
2021/12/06 09:44:00;;;;;;;9.33;6.03;;;;;;;10.56;84.03;95615.63;5092100;28;20423;-39
2021/12/06 09:46:34;;;;;;;9.77;6.17;;;;;;;10.58;83.09;95605.56;5092135;28;20440;-38
2021/12/06 09:49:03;;;;;;;19.83;10.73;;;;;;;10.63;83.98;95603.69;5091446;28;20475;-38
2021/12/06 09:51:31;;;;;;;14.00;7.77;;;;;;;10.61;84.34;95600.53;5091980;28;20450;-38
2021/12/06 09:53:59;;;;;;;10.53;6.80;;;;;;;10.62;85.89;95607.41;5092240;28;20439;-38
2021/12/06 09:56:29;;;;;;;9.40;7.60;;;;;;;10.70;86.69;95586.72;5091814;28;20443;-38
2021/12/06 09:58:58;;;;;;;16.33;9.47;;;;;;;10.79;86.92;95585.13;5092120;28;20810;-38
2021/12/06 10:01:31;;;;;;;37.77;16.57;;;;;;;10.85;87.48;95578.75;5091244;28;20443;-38
2021/12/06 10:03:59;;;;;;;37.23;20.97;;;;;;;10.88;86.75;95588.03;5091797;28;20427;-38
2021/12/06 10:06:28;;;;;;;24.47;14.10;;;;;;;10.94;86.55;95584.31;5091680;28;20444;-38
2021/12/06 10:08:57;;;;;;;25.97;14.37;;;;;;;10.86;85.93;95556.44;5091597;28;20490;-38
2021/12/06 10:11:27;;;;;;;22.53;11.70;;;;;;;11.06;86.48;95575.00;5091904;28;20435;-38
2021/12/06 10:13:56;;;;;;;35.80;14.50;;;;;;;11.07;85.88;95576.56;5091117;28;20783;-38
2021/12/06 10:16:24;;;;;;;21.90;11.97;;;;;;;11.19;85.00;95573.63;5091549;28;20447;-37
2021/12/06 10:18:53;;;;;;;22.70;14.90;;;;;;;11.25;85.27;95582.41;5091835;28;20445;-38
2021/12/06 10:21:24;;;;;;;9.20;6.43;;;;;;;11.24;85.27;95570.16;5091470;28;20483;-37
2021/12/06 10:23:52;;;;;;;7.80;5.90;;;;;;;11.20;82.93;95566.47;5091852;28;20476;-37
2021/12/06 10:26:24;;;;;;;12.50;9.80;;;;;;;11.10;85.01;95574.44;5091259;28;20447;-37
2021/12/06 10:28:56;;;;;;;8.17;5.93;;;;;;;11.07;84.97;95557.97;5091124;28;20981;-38
2021/12/06 10:31:26;;;;;;;13.37;9.27;;;;;;;11.15;84.82;95555.84;5091461;28;20522;-38
2021/12/06 10:33:55;;;;;;;10.70;6.60;;;;;;;11.26;84.88;95557.41;5091962;28;20520;-37
2021/12/06 10:36:26;;;;;;;5.70;4.60;;;;;;;11.40;82.71;95553.13;5091668;28;20450;-37
2021/12/06 10:39:01;;;;;;;19.60;8.00;;;;;;;11.61;80.01;95545.06;5091287;28;20439;-38
2021/12/06 10:41:32;;;;;;;13.67;9.97;;;;;;;11.80;79.74;95550.56;5091172;28;20442;-37
2021/12/06 10:44:03;;;;;;;6.10;4.50;;;;;;;11.87;77.67;95533.25;5091361;28;20803;-38
2021/12/06 10:46:31;;;;;;;7.40;4.80;;;;;;;12.13;77.49;95541.09;5090952;28;20798;-38
2021/12/06 10:49:03;;;;;;;8.93;7.00;;;;;;;12.45;77.42;95556.56;5091174;28;20497;-38
2021/12/06 10:51:31;;;;;;;7.90;4.80;;;;;;;12.51;76.68;95549.31;5091311;28;20432;-38
2021/12/06 10:54:03;;;;;;;5.30;3.73;;;;;;;12.60;76.28;95542.31;5090956;28;20968;-38
2021/12/06 10:56:39;;;;;;;6.33;4.80;;;;;;;12.65;75.15;95534.31;5091500;28;20442;-38
2021/12/06 10:59:13;;;;;;;7.90;4.33;;;;;;;12.88;75.37;95526.63;5091048;28;20430;-38
2021/12/06 11:01:40;;;;;;;6.67;5.63;;;;;;;12.97;76.42;95529.47;5091192;28;20568;-38
2021/12/06 11:04:12;;;;;;;4.77;4.27;;;;;;;12.98;74.29;95531.06;5091446;28;20449;-38
2021/12/06 11:06:43;;;;;;;24.33;15.40;;;;;;;13.11;74.31;95541.06;5090842;28;20949;-38
2021/12/06 11:09:13;;;;;;;8.20;5.97;;;;;;;13.23;73.98;95543.34;5091108;28;20574;-38
2021/12/06 11:11:43;;;;;;;7.17;4.77;;;;;;;13.24;73.91;95544.91;5091538;28;20451;-38
2021/12/06 11:14:12;;;;;;;9.67;4.20;;;;;;;13.26;74.00;95535.56;5091090;28;20443;-38
2021/12/06 11:16:42;;;;;;;67.53;29.70;;;;;;;13.32;73.98;95520.34;5091321;28;20457;-38
2021/12/06 11:19:12;;;;;;;19.93;13.27;;;;;;;13.48;73.26;95513.72;5090704;28;20918;-38
2021/12/06 11:21:43;;;;;;;5.73;4.00;;;;;;;13.59;73.30;95508.28;5090910;28;20474;-38
2021/12/06 11:24:34;;;;;;;;;;;;;;;;;;;;;
2021/12/06 11:27:07;;;;;;;14.73;9.03;;;;;;;13.66;72.06;95519.41;5095041;28;20438;-38
2021/12/06 11:29:38;;;;;;;13.03;7.03;;;;;;;13.76;72.87;95524.59;5094913;28;20504;-38
2021/12/06 11:32:09;;;;;;;6.07;4.37;;;;;;;13.83;71.57;95502.88;5094591;28;20454;-38
2021/12/06 11:34:40;;;;;;;5.17;4.30;;;;;;;13.87;72.01;95509.25;5094976;28;20424;-38